Time;durP1;ratioP1;P1;durP2;ratioP2;P2;SDS_P1;SDS_P2;PMS_P1;PMS_P2;Temp;Humidity;BMP_temperature;BMP_pressure;BME280_temperature;BME280_humidity;BME280_pressure;Samples;Min_cycle;Max_cycle;Signal;HPM_P1;HPM_P2
2023/05/29 00:01:25;;;;;;;0.10;0.10;;;;;;;14.83;61.22;102543.72;5045256;28;20052;-78
2023/05/29 00:03:52;;;;;;;0.00;0.00;;;;;;;14.84;59.70;102545.47;5042425;28;20514;-78
2023/05/29 00:06:19;;;;;;;0.10;0.10;;;;;;;14.78;60.91;102538.41;5045637;28;20060;-78
2023/05/29 00:08:46;;;;;;;0.10;0.10;;;;;;;14.73;61.36;102537.59;5046232;28;20025;-77
2023/05/29 00:11:12;;;;;;;0.10;0.10;;;;;;;14.71;61.29;102542.03;5058403;28;20104;-77
2023/05/29 00:13:38;;;;;;;0.20;0.20;;;;;;;14.65;61.97;102539.44;5050769;28;20026;-79
2023/05/29 00:16:05;;;;;;;0.00;0.00;;;;;;;14.62;61.64;102534.13;5053096;28;20033;-80
2023/05/29 00:18:31;;;;;;;0.10;0.10;;;;;;;14.60;60.95;102533.22;5056438;28;20045;-77
2023/05/29 00:20:57;;;;;;;0.20;0.20;;;;;;;14.55;60.93;102526.16;5058066;28;20529;-78
2023/05/29 00:23:24;;;;;;;1.33;1.23;;;;;;;14.50;61.23;102538.63;5063337;28;20057;-78
2023/05/29 00:25:50;;;;;;;0.00;0.00;;;;;;;14.47;61.04;102533.34;5068525;28;20025;-78
2023/05/29 00:28:16;;;;;;;0.05;0.05;;;;;;;14.45;60.90;102534.25;5061381;28;20060;-79
2023/05/29 00:30:42;;;;;;;0.10;0.10;;;;;;;14.41;60.52;102538.75;5053218;28;20021;-77
2023/05/29 00:33:08;;;;;;;0.10;0.10;;;;;;;14.35;60.51;102546.78;5053533;28;20052;-78
2023/05/29 00:35:34;;;;;;;0.22;0.22;;;;;;;14.30;60.94;102548.63;5060882;28;20013;-77
2023/05/29 00:38:00;;;;;;;0.10;0.10;;;;;;;14.27;60.90;102551.28;5052060;28;20037;-79
2023/05/29 00:40:27;;;;;;;0.00;0.00;;;;;;;14.24;61.01;102553.09;5067785;28;20123;-79
2023/05/29 00:42:53;;;;;;;0.10;0.10;;;;;;;14.22;60.80;102560.22;5052373;28;20013;-79
2023/05/29 00:45:19;;;;;;;0.10;0.10;;;;;;;14.20;60.73;102559.34;5060511;28;20036;-79
2023/05/29 00:47:46;;;;;;;0.00;0.00;;;;;;;14.16;60.60;102570.94;5053533;28;20041;-79
2023/05/29 00:50:13;;;;;;;0.10;0.10;;;;;;;14.08;60.99;102573.66;5052102;28;20037;-78
2023/05/29 00:52:42;;;;;;;0.55;0.55;;;;;;;14.11;60.58;102582.53;5055367;28;20025;-80
2023/05/29 00:55:09;;;;;;;0.10;0.10;;;;;;;14.07;60.82;102587.00;5059938;28;20036;-78
2023/05/29 00:57:38;;;;;;;1.35;1.20;;;;;;;14.05;60.71;102588.78;5051052;28;20099;-79
2023/05/29 01:00:08;;;;;;;0.00;0.00;;;;;;;14.01;60.31;102593.25;5049740;28;20049;-79
2023/05/29 01:02:36;;;;;;;0.10;0.10;;;;;;;13.98;60.56;102576.38;5047957;28;20033;-78
2023/05/29 01:05:02;;;;;;;0.63;0.63;;;;;;;13.93;60.65;102584.41;5051744;28;20049;-77
2023/05/29 01:07:28;;;;;;;0.05;0.05;;;;;;;13.88;61.65;102583.53;5046555;28;20041;-79
2023/05/29 01:09:55;;;;;;;0.10;0.10;;;;;;;13.88;60.99;102581.78;5051387;28;20032;-79
2023/05/29 01:12:38;;;;;;;0.10;0.10;;;;;;;13.91;61.01;102584.41;5051351;28;20021;-79
2023/05/29 01:26:37;;;;;;;0.03;0.03;;;;;;;13.81;61.55;102589.81;5082519;28;20387;-79
2023/05/29 01:29:06;;;;;;;0.10;0.10;;;;;;;13.75;61.51;102596.06;5053925;28;20041;-79
2023/05/29 01:31:35;;;;;;;0.10;0.10;;;;;;;13.71;60.50;102607.63;5042455;28;20079;-78
2023/05/29 01:34:01;;;;;;;0.00;0.00;;;;;;;13.66;60.75;102612.09;5036120;28;20018;-79
2023/05/29 01:36:28;;;;;;;0.10;0.10;;;;;;;13.61;61.24;102608.53;5030419;28;20030;-78
2023/05/29 01:38:57;;;;;;;0.68;0.68;;;;;;;13.57;61.52;102611.25;5037338;28;20022;-79
2023/05/29 01:41:25;;;;;;;0.05;0.05;;;;;;;13.54;61.79;102602.38;5047241;28;20029;-79
2023/05/29 01:43:51;;;;;;;0.10;0.10;;;;;;;13.51;61.25;102605.94;5049122;28;20029;-78
2023/05/29 01:46:19;;;;;;;0.10;0.10;;;;;;;13.46;61.44;102607.72;5045450;28;20045;-79
2023/05/29 01:48:47;;;;;;;0.03;0.03;;;;;;;13.43;61.61;102599.75;5049782;28;20037;-80
2023/05/29 01:51:13;;;;;;;0.20;0.20;;;;;;;13.41;61.52;102606.88;5049351;28;20040;-78
2023/05/29 01:53:41;;;;;;;0.10;0.10;;;;;;;13.38;61.97;102617.50;5045164;28;20033;-78
2023/05/29 01:56:08;;;;;;;0.10;0.10;;;;;;;13.35;61.58;102618.38;5045126;28;20036;-79
2023/05/29 01:58:36;;;;;;;0.10;0.10;;;;;;;13.36;61.55;102608.63;5045338;28;20082;-79
2023/05/29 02:01:06;;;;;;;0.43;0.43;;;;;;;13.33;61.36;102620.16;5035594;28;20036;-78
2023/05/29 02:03:32;;;;;;;0.05;0.05;;;;;;;13.31;61.37;102618.38;5045231;28;20033;-78
2023/05/29 02:05:59;;;;;;;0.10;0.10;;;;;;;13.27;61.72;102615.75;5044953;28;20118;-79
2023/05/29 02:08:26;;;;;;;0.10;0.10;;;;;;;13.24;61.92;102618.41;5036656;28;20030;-78
2023/05/29 02:10:53;;;;;;;0.10;0.10;;;;;;;13.23;61.58;102616.66;5044286;28;20033;-77
2023/05/29 02:13:19;;;;;;;1.52;1.42;;;;;;;13.21;60.84;102626.41;5044044;28;20396;-78
2023/05/29 02:15:45;;;;;;;0.00;0.00;;;;;;;13.20;61.15;102626.41;5047218;28;20112;-77
2023/05/29 02:18:13;;;;;;;0.10;0.10;;;;;;;13.18;61.50;102625.53;5046926;28;20030;-78
2023/05/29 02:20:40;;;;;;;0.10;0.10;;;;;;;13.14;61.49;102619.31;5037803;28;20036;-79
2023/05/29 02:23:08;;;;;;;0.10;0.10;;;;;;;13.14;61.19;102613.13;5043544;28;20527;-77
2023/05/29 02:25:35;;;;;;;0.10;0.10;;;;;;;13.09;61.12;102621.97;5050306;28;20038;-77
2023/05/29 02:28:01;;;;;;;0.10;0.10;;;;;;;13.08;61.02;102614.00;5041752;28;20037;-80
2023/05/29 02:30:28;;;;;;;0.10;0.10;;;;;;;13.05;60.83;102620.22;5050239;28;20581;-78
2023/05/29 02:32:54;;;;;;;0.00;0.00;;;;;;;13.00;61.03;102619.34;5044180;28;20111;-78
2023/05/29 02:35:22;;;;;;;0.10;0.10;;;;;;;12.99;61.17;102608.72;5047344;28;20053;-78
2023/05/29 02:37:49;;;;;;;0.10;0.10;;;;;;;12.97;61.37;102621.13;5041940;28;20515;-77
2023/05/29 02:40:16;;;;;;;0.10;0.10;;;;;;;12.93;61.17;102613.16;5033874;28;20044;-76
2023/05/29 02:42:42;;;;;;;0.10;0.10;;;;;;;12.97;61.04;102621.13;5035552;28;20034;-78
2023/05/29 02:45:09;;;;;;;0.63;0.63;;;;;;;12.86;61.92;102615.81;5033744;28;20036;-80
2023/05/29 02:47:37;;;;;;;0.10;0.10;;;;;;;12.84;61.77;102620.28;5030386;28;20034;-80
2023/05/29 02:50:04;;;;;;;0.00;0.00;;;;;;;12.87;61.17;102610.50;5036643;28;20040;-80
2023/05/29 02:52:31;;;;;;;0.10;0.10;;;;;;;12.82;62.01;102606.94;5037919;28;20511;-79
2023/05/29 02:54:58;;;;;;;0.10;0.10;;;;;;;12.82;61.57;102617.59;5038787;28;20021;-79
2023/05/29 02:57:24;;;;;;;0.10;0.10;;;;;;;12.81;61.53;102629.13;5040130;28;20103;-78
2023/05/29 02:59:51;;;;;;;0.10;0.10;;;;;;;12.79;62.03;102626.47;5043364;28;20036;-80
2023/05/29 03:02:18;;;;;;;0.10;0.10;;;;;;;12.78;62.12;102626.47;5048658;28;20029;-79
2023/05/29 03:04:45;;;;;;;0.10;0.10;;;;;;;12.79;61.44;102625.59;5034145;28;20021;-79
2023/05/29 03:07:12;;;;;;;4.78;1.55;;;;;;;12.77;62.18;102622.03;5040634;28;20274;-79
2023/05/29 03:09:41;;;;;;;0.85;0.85;;;;;;;12.77;62.03;102632.66;5034763;28;20036;-78
2023/05/29 03:12:07;;;;;;;0.20;0.20;;;;;;;12.74;61.72;102632.69;5029145;28;20126;-79
2023/05/29 03:14:35;;;;;;;0.10;0.10;;;;;;;12.74;61.10;102633.56;5040860;28;20028;-80
2023/05/29 03:17:05;;;;;;;0.08;0.08;;;;;;;12.68;61.82;102630.03;5030338;28;20034;-79
2023/05/29 03:19:31;;;;;;;0.10;0.10;;;;;;;12.71;61.44;102630.91;5036964;28;20087;-79
2023/05/29 03:21:57;;;;;;;0.10;0.10;;;;;;;12.69;61.45;102626.50;5032591;28;20033;-79
2023/05/29 03:24:24;;;;;;;0.10;0.10;;;;;;;12.70;61.52;102622.94;5037630;28;20043;-79
2023/05/29 03:26:50;;;;;;;0.10;0.10;;;;;;;12.66;61.13;102626.47;5026857;28;21237;-79
2023/05/29 03:29:17;;;;;;;0.10;0.10;;;;;;;12.64;61.38;102625.59;5028472;28;20026;-78
2023/05/29 03:31:43;;;;;;;0.10;0.10;;;;;;;12.66;61.23;102626.47;5036270;28;20022;-79
2023/05/29 03:34:09;;;;;;;0.00;0.00;;;;;;;12.64;61.00;102625.59;5034726;28;20044;-80
2023/05/29 03:36:36;;;;;;;0.10;0.10;;;;;;;12.63;61.33;102619.38;5036801;28;20135;-80
2023/05/29 03:39:03;;;;;;;0.10;0.10;;;;;;;12.59;61.51;102621.16;5031170;28;20032;-78
2023/05/29 03:41:29;;;;;;;0.10;0.10;;;;;;;12.58;61.92;102623.81;5026769;28;21381;-78
2023/05/29 03:43:55;;;;;;;0.10;0.10;;;;;;;12.53;61.67;102623.81;5020791;28;20520;-80
2023/05/29 03:46:22;;;;;;;0.10;0.10;;;;;;;12.53;61.32;102629.13;5027530;28;20045;-79
2023/05/29 03:48:48;;;;;;;0.73;0.73;;;;;;;12.51;61.09;102638.91;5023716;28;20026;-79
2023/05/29 03:51:14;;;;;;;0.10;0.10;;;;;;;12.50;60.75;102637.13;5031778;28;20559;-80
2023/05/29 03:53:40;;;;;;;0.10;0.10;;;;;;;12.50;61.02;102637.13;5033305;28;20488;-80
2023/05/29 03:56:06;;;;;;;0.10;0.10;;;;;;;12.46;61.75;102640.63;5026168;28;20057;-79
2023/05/29 03:58:32;;;;;;;0.10;0.10;;;;;;;12.49;61.63;102638.00;5033846;28;20068;-80
2023/05/29 04:00:58;;;;;;;0.10;0.10;;;;;;;12.48;61.54;102649.50;5032467;28;20075;-80
2023/05/29 04:03:24;;;;;;;0.08;0.08;;;;;;;12.52;61.26;102643.31;5031895;28;20037;-79
2023/05/29 04:05:50;;;;;;;0.10;0.10;;;;;;;12.53;61.35;102642.41;5037374;28;20403;-80
2023/05/29 04:08:16;;;;;;;0.03;0.03;;;;;;;12.55;60.62;102632.69;5037987;28;20053;-78
2023/05/29 04:10:43;;;;;;;0.10;0.10;;;;;;;12.54;61.09;102641.53;5031578;28;20033;-79
2023/05/29 04:13:09;;;;;;;0.10;0.10;;;;;;;12.56;61.49;102636.22;5038829;28;20030;-80
2023/05/29 04:15:36;;;;;;;0.03;0.03;;;;;;;12.61;60.42;102640.66;5036932;28;20029;-79
2023/05/29 04:18:02;;;;;;;0.10;0.10;;;;;;;12.62;60.76;102637.13;5023065;28;20053;-79
2023/05/29 04:20:28;;;;;;;0.10;0.10;;;;;;;12.62;61.00;102642.44;5035204;28;20048;-80
2023/05/29 04:22:54;;;;;;;0.13;0.13;;;;;;;12.65;60.69;102640.66;5035373;28;20033;-79
2023/05/29 04:25:20;;;;;;;0.10;0.10;;;;;;;12.67;60.86;102654.84;5021254;28;20113;-79
2023/05/29 04:27:48;;;;;;;0.10;0.10;;;;;;;12.71;60.53;102653.94;5032769;28;20041;-80
2023/05/29 04:30:15;;;;;;;0.10;0.10;;;;;;;12.69;60.85;102663.72;5030667;28;20535;-79
2023/05/29 04:32:42;;;;;;;0.03;0.03;;;;;;;12.72;61.06;102658.38;5027046;28;20723;-79
2023/05/29 04:35:09;;;;;;;0.00;0.00;;;;;;;12.75;60.59;102658.41;5044671;28;20021;-80
2023/05/29 04:37:38;;;;;;;0.10;0.10;;;;;;;12.75;60.80;102658.41;5046162;28;20033;-79
2023/05/29 04:40:11;;;;;;;0.00;0.00;;;;;;;12.79;60.42;102665.47;5037498;28;20072;-79
2023/05/29 04:42:37;;;;;;;0.10;0.10;;;;;;;12.74;60.55;102657.50;5032836;28;20033;-79
2023/05/29 04:45:05;;;;;;;0.03;0.03;;;;;;;12.79;60.28;102661.03;5028834;28;20036;-78
2023/05/29 04:47:32;;;;;;;0.22;0.22;;;;;;;12.80;60.29;102672.59;5029836;28;20037;-78
2023/05/29 04:50:00;;;;;;;0.10;0.10;;;;;;;12.87;60.34;102662.81;5031539;28;20041;-80
2023/05/29 04:52:26;;;;;;;0.65;0.65;;;;;;;12.84;60.26;102671.69;5035536;28;20025;-79
2023/05/29 04:54:53;;;;;;;0.10;0.10;;;;;;;12.87;59.78;102674.38;5034722;28;20029;-80
2023/05/29 04:57:19;;;;;;;0.10;0.10;;;;;;;12.89;59.31;102677.00;5031433;28;20536;-79
2023/05/29 04:59:45;;;;;;;0.10;0.10;;;;;;;12.88;59.72;102670.78;5033578;28;20029;-77
2023/05/29 05:02:11;;;;;;;0.10;0.10;;;;;;;12.92;59.75;102677.91;5027608;28;20086;-79
2023/05/29 05:04:37;;;;;;;0.17;0.17;;;;;;;12.94;59.20;102675.25;5024264;28;20136;-80
2023/05/29 05:07:05;;;;;;;0.10;0.10;;;;;;;12.96;59.15;102678.78;5034591;28;20527;-79
2023/05/29 05:09:31;;;;;;;0.10;0.10;;;;;;;12.99;59.11;102677.91;5033306;28;20097;-79
2023/05/29 05:11:57;;;;;;;0.10;0.10;;;;;;;12.98;59.42;102671.66;5025732;28;20041;-80
2023/05/29 05:14:24;;;;;;;0.15;0.15;;;;;;;13.05;59.04;102678.78;5033607;28;20030;-79
2023/05/29 05:16:50;;;;;;;0.05;0.05;;;;;;;13.08;59.41;102672.56;5036780;28;20040;-77
2023/05/29 05:19:17;;;;;;;0.10;0.10;;;;;;;13.10;59.49;102678.78;5036380;28;20044;-78
2023/05/29 05:21:43;;;;;;;0.10;0.10;;;;;;;13.13;59.67;102673.44;5033428;28;20373;-78
2023/05/29 05:24:09;;;;;;;0.10;0.10;;;;;;;13.17;59.57;102677.88;5037625;28;20499;-79
2023/05/29 05:26:35;;;;;;;0.10;0.10;;;;;;;13.21;59.19;102679.66;5014394;28;20548;-80
2023/05/29 05:29:01;;;;;;;0.10;0.10;;;;;;;13.26;58.89;102683.19;5033485;28;20072;-80
2023/05/29 05:31:27;;;;;;;0.10;0.10;;;;;;;13.30;58.89;102680.53;5035467;28;20041;-80
2023/05/29 05:33:53;;;;;;;0.10;0.10;;;;;;;13.37;58.69;102682.25;5037663;28;20033;-79
2023/05/29 05:36:20;;;;;;;0.20;0.20;;;;;;;13.42;58.66;102683.16;5032506;28;20038;-80
2023/05/29 05:38:46;;;;;;;0.10;0.10;;;;;;;13.47;58.76;102680.50;5035898;28;20396;-80
2023/05/29 05:41:12;;;;;;;0.10;0.10;;;;;;;13.51;58.86;102672.50;5030787;28;20041;-80
2023/05/29 05:43:38;;;;;;;0.10;0.10;;;;;;;13.52;58.63;102682.28;5037522;28;20025;-80
2023/05/29 05:46:04;;;;;;;0.10;0.10;;;;;;;13.61;58.46;102699.09;5024803;28;20064;-80
2023/05/29 05:48:30;;;;;;;3.13;1.85;;;;;;;13.67;58.35;102689.34;5033413;28;20041;-80
2023/05/29 05:50:56;;;;;;;0.10;0.10;;;;;;;13.67;58.89;102692.00;5032270;28;20025;-80
2023/05/29 05:53:22;;;;;;;0.13;0.13;;;;;;;13.78;58.43;102694.59;5033363;28;20049;-80
2023/05/29 05:55:48;;;;;;;0.10;0.10;;;;;;;13.79;57.82;102693.72;5036332;28;20496;-78
2023/05/29 05:58:14;;;;;;;0.10;0.10;;;;;;;13.89;58.01;102700.81;5035432;28;20033;-78
2023/05/29 06:00:42;;;;;;;0.10;0.10;;;;;;;13.92;58.32;102691.91;5031300;28;20033;-78
2023/05/29 06:03:08;;;;;;;0.10;0.10;;;;;;;14.01;58.16;102696.31;5037477;28;20029;-80
2023/05/29 06:05:36;;;;;;;0.10;0.10;;;;;;;14.07;58.29;102701.59;5034581;28;20026;-80
2023/05/29 06:08:02;;;;;;;0.10;0.10;;;;;;;14.11;58.10;102710.47;5033677;28;20598;-80
2023/05/29 06:10:28;;;;;;;0.10;0.10;;;;;;;14.16;57.64;102709.53;5028796;28;20032;-80
2023/05/29 06:12:54;;;;;;;1.25;1.10;;;;;;;14.19;57.40;102704.22;5036300;28;20037;-80
2023/05/29 06:15:20;;;;;;;0.10;0.10;;;;;;;14.22;57.16;102704.19;5035497;28;20033;-80
2023/05/29 06:17:46;;;;;;;0.10;0.10;;;;;;;14.24;56.73;102713.06;5039739;28;20318;-80
2023/05/29 06:20:13;;;;;;;0.10;0.10;;;;;;;14.29;57.21;102714.81;5038301;28;20545;-80
2023/05/29 06:22:40;;;;;;;0.10;0.10;;;;;;;14.34;57.12;102713.00;5038731;28;20034;-80
2023/05/29 06:25:06;;;;;;;0.10;0.10;;;;;;;14.35;56.87;102704.13;5029159;28;20058;-80
2023/05/29 06:27:32;;;;;;;0.10;0.10;;;;;;;14.45;56.86;102710.28;5029092;28;20497;-80
2023/05/29 06:29:58;;;;;;;0.10;0.10;;;;;;;14.45;56.20;102696.94;5034873;28;20574;-80
2023/05/29 06:32:24;;;;;;;0.10;0.10;;;;;;;14.53;56.25;102703.13;5030012;28;20570;-80
2023/05/29 06:34:50;;;;;;;0.05;0.05;;;;;;;14.52;55.40;102694.22;5028338;28;20022;-80
2023/05/29 06:37:16;;;;;;;0.35;0.35;;;;;;;14.59;55.26;102696.84;5040259;28;20401;-80
2023/05/29 06:39:46;;;;;;;1.35;0.57;;;;;;;14.65;55.67;102702.16;5039304;28;20068;-80
2023/05/29 06:42:12;;;;;;;0.35;0.30;;;;;;;14.68;55.40;102702.16;5038622;28;20113;-80
2023/05/29 06:44:38;;;;;;;0.10;0.10;;;;;;;14.71;54.70;102702.13;5029703;28;20021;-80
2023/05/29 06:47:07;;;;;;;0.10;0.10;;;;;;;14.79;55.07;102707.41;5036927;28;20496;-80
2023/05/29 06:49:33;;;;;;;0.10;0.10;;;;;;;14.81;55.21;102706.47;5038429;28;20029;-80
2023/05/29 06:51:59;;;;;;;0.10;0.10;;;;;;;14.88;54.66;102715.34;5035989;28;20320;-80
2023/05/29 06:54:25;;;;;;;0.00;0.00;;;;;;;14.92;54.82;102710.88;5028716;28;20025;-80
2023/05/29 06:56:52;;;;;;;0.10;0.10;;;;;;;14.99;54.77;102709.91;5028863;28;20034;-80
2023/05/29 06:59:19;;;;;;;0.10;0.10;;;;;;;15.07;53.85;102717.88;5031396;28;20365;-80
2023/05/29 07:01:45;;;;;;;0.08;0.08;;;;;;;15.17;54.56;102709.72;5035671;28;20075;-80
2023/05/29 07:04:12;;;;;;;0.00;0.00;;;;;;;15.23;54.40;102722.16;5038309;28;20037;-80
2023/05/29 07:06:38;;;;;;;0.10;0.10;;;;;;;15.31;54.28;102716.72;5048514;28;20124;-80
2023/05/29 07:09:04;;;;;;;0.52;0.52;;;;;;;15.32;53.65;102721.19;5039698;28;20087;-79
2023/05/29 07:11:31;;;;;;;0.08;0.08;;;;;;;15.38;53.92;102715.78;5046747;28;20032;-80
2023/05/29 07:13:57;;;;;;;0.20;0.20;;;;;;;15.37;53.27;102722.88;5040612;28;20099;-80
2023/05/29 07:16:23;;;;;;;0.13;0.13;;;;;;;15.41;53.35;102714.88;5037105;28;20034;-80
2023/05/29 07:18:49;;;;;;;0.10;0.10;;;;;;;15.40;52.89;102716.63;5036989;28;20051;-80
2023/05/29 07:21:16;;;;;;;0.00;0.00;;;;;;;15.44;53.31;102721.06;5045419;28;20052;-80
2023/05/29 07:23:42;;;;;;;0.10;0.10;;;;;;;15.51;53.41;102714.75;5034711;28;20047;-80
2023/05/29 07:26:09;;;;;;;0.10;0.10;;;;;;;15.61;53.07;102720.84;5031053;28;20037;-80
2023/05/29 07:28:35;;;;;;;0.10;0.10;;;;;;;15.67;53.23;102717.25;5036970;28;20124;-80
2023/05/29 07:31:01;;;;;;;0.85;0.85;;;;;;;15.78;53.28;102720.69;5039740;28;20041;-78
2023/05/29 07:33:27;;;;;;;0.10;0.10;;;;;;;15.79;51.72;102717.09;5033888;28;20037;-79
2023/05/29 07:35:53;;;;;;;0.10;0.10;;;;;;;15.84;51.92;102735.81;5041324;28;20056;-80
2023/05/29 07:38:19;;;;;;;0.10;0.10;;;;;;;15.91;52.07;102725.91;5031085;28;20022;-79
2023/05/29 07:40:45;;;;;;;1.42;1.33;;;;;;;15.95;52.20;102727.63;5025608;28;20042;-79
2023/05/29 07:43:11;;;;;;;0.10;0.10;;;;;;;16.05;52.31;102729.31;5035026;28;20044;-78
2023/05/29 07:45:37;;;;;;;0.10;0.10;;;;;;;16.13;52.27;102727.41;5041753;28;20037;-78
2023/05/29 07:48:03;;;;;;;0.10;0.10;;;;;;;16.23;52.63;102727.28;5029744;28;20042;-78
2023/05/29 07:50:29;;;;;;;0.28;0.28;;;;;;;16.27;51.77;102724.53;5032558;28;20485;-79
2023/05/29 07:52:57;;;;;;;0.10;0.10;;;;;;;16.40;52.25;102727.03;5029760;28;20043;-79
2023/05/29 07:55:23;;;;;;;0.10;0.10;;;;;;;16.45;51.99;102735.91;5051588;28;20087;-77
2023/05/29 07:57:49;;;;;;;0.20;0.20;;;;;;;16.49;51.72;102732.28;5040205;28;20497;-78
2023/05/29 08:00:15;;;;;;;0.10;0.10;;;;;;;16.54;51.82;102726.84;5037263;28;20037;-79
2023/05/29 08:02:42;;;;;;;0.03;0.03;;;;;;;16.61;51.46;102729.41;5037873;28;20034;-79
2023/05/29 08:05:08;;;;;;;0.10;0.10;;;;;;;16.66;51.67;102729.34;5027120;28;20038;-79
2023/05/29 08:07:35;;;;;;;0.10;0.10;;;;;;;16.62;50.56;102720.47;5032759;28;20056;-78
2023/05/29 08:10:01;;;;;;;0.10;0.10;;;;;;;16.64;50.73;102733.84;5030974;28;20513;-80
2023/05/29 08:12:27;;;;;;;0.13;0.13;;;;;;;16.64;51.05;102739.19;5039817;28;20058;-79
2023/05/29 08:14:53;;;;;;;0.05;0.05;;;;;;;16.72;51.00;102737.25;5041689;28;20415;-78
2023/05/29 08:17:19;;;;;;;0.10;0.10;;;;;;;16.81;51.20;102736.25;5041412;28;20025;-78
2023/05/29 08:19:46;;;;;;;0.10;0.10;;;;;;;16.86;50.59;102733.47;5042317;28;20064;-80
2023/05/29 08:22:14;;;;;;;0.10;0.10;;;;;;;16.91;50.14;102736.97;5040949;28;20033;-80
2023/05/29 08:24:41;;;;;;;0.10;0.10;;;;;;;16.94;50.68;102737.84;5041897;28;20489;-82
2023/05/29 08:27:07;;;;;;;0.10;0.10;;;;;;;17.02;50.80;102743.06;5041651;28;20037;-81
2023/05/29 08:29:33;;;;;;;0.10;0.10;;;;;;;17.16;50.49;102736.59;5041242;28;20044;-80
2023/05/29 08:31:59;;;;;;;0.10;0.10;;;;;;;17.23;49.12;102744.47;5041164;28;20500;-81
2023/05/29 08:34:25;;;;;;;0.13;0.13;;;;;;;17.34;49.67;102736.25;5040817;28;20055;-80
2023/05/29 08:36:51;;;;;;;0.10;0.10;;;;;;;17.38;49.46;102743.31;5046062;28;20052;-80
2023/05/29 08:39:17;;;;;;;0.10;0.10;;;;;;;17.41;48.98;102743.28;5052278;28;20113;-77
2023/05/29 08:44:22;;;;;;;2.87;0.47;;;;;;;17.37;50.10;102736.22;5127087;27;1159709;-79
2023/05/29 08:46:55;;;;;;;0.10;0.10;;;;;;;17.53;49.51;102741.28;5141015;27;20028;-81
2023/05/29 08:49:22;;;;;;;0.10;0.10;;;;;;;17.61;49.25;102747.38;5138322;28;20035;-81
2023/05/29 08:52:01;;;;;;;0.10;0.10;;;;;;;17.74;48.25;102748.88;5134092;28;20149;-81
2023/05/29 08:54:31;;;;;;;0.10;0.10;;;;;;;17.79;49.14;102759.53;5118278;28;20034;-81
2023/05/29 08:56:58;;;;;;;0.10;0.10;;;;;;;17.71;47.63;102758.81;5116627;28;20544;-81
2023/05/29 08:59:25;;;;;;;0.43;0.40;;;;;;;17.77;47.19;102764.06;5117049;28;20073;-81
2023/05/29 09:01:51;;;;;;;0.05;0.05;;;;;;;17.71;47.80;102762.38;5117864;28;20030;-80
2023/05/29 09:04:18;;;;;;;0.10;0.10;;;;;;;17.57;47.18;102769.78;5117436;28;20023;-77
2023/05/29 09:06:46;;;;;;;0.10;0.10;;;;;;;17.60;48.11;102754.53;5115743;28;20095;-80
2023/05/29 09:09:12;;;;;;;0.10;0.10;;;;;;;17.62;47.79;102765.25;5110363;28;20024;-81
2023/05/29 09:11:38;;;;;;;0.10;0.10;;;;;;;17.70;48.06;102751.69;5115886;28;20031;-81
2023/05/29 09:14:05;;;;;;;0.10;0.10;;;;;;;17.77;48.07;102754.22;5117657;28;20031;-81
2023/05/29 09:16:31;;;;;;;0.10;0.10;;;;;;;17.86;47.51;102758.50;5117722;28;20028;-80
2023/05/29 09:19:06;;;;;;;0.00;0.00;;;;;;;17.93;46.77;102751.22;5117785;28;20055;-81
2023/05/29 09:21:34;;;;;;;0.10;0.10;;;;;;;17.89;46.36;102760.25;5116595;28;20111;-81
2023/05/29 09:24:05;;;;;;;1.08;1.08;;;;;;;17.96;46.86;102761.91;5116712;28;20035;-81
2023/05/29 09:26:33;;;;;;;0.43;0.43;;;;;;;17.95;46.47;102765.50;5115759;28;20115;-81
2023/05/29 09:28:59;;;;;;;1.00;0.75;;;;;;;18.09;46.99;102762.53;5106343;28;20035;-81
2023/05/29 09:31:25;;;;;;;0.10;0.10;;;;;;;18.13;45.95;102769.63;5116136;28;20547;-81
2023/05/29 09:33:51;;;;;;;0.10;0.10;;;;;;;18.13;44.96;102761.59;5116745;28;20116;-81
2023/05/29 09:36:22;;;;;;;0.10;0.10;;;;;;;18.14;45.12;102759.78;5116051;28;20031;-80
2023/05/29 09:38:50;;;;;;;0.00;0.00;;;;;;;18.14;46.40;102765.13;5115693;28;20022;-81
2023/05/29 09:41:24;;;;;;;0.20;0.20;;;;;;;18.19;46.26;102757.88;5112745;28;20027;-80
2023/05/29 09:43:51;;;;;;;0.10;0.10;;;;;;;18.17;46.21;102748.97;5119542;28;20026;-80
2023/05/29 09:46:17;;;;;;;0.43;0.43;;;;;;;18.19;45.76;102757.88;5121872;28;20398;-81
2023/05/29 09:48:45;;;;;;;0.10;0.10;;;;;;;18.18;46.17;102746.25;5131136;28;20030;-80
2023/05/29 09:51:26;;;;;;;0.20;0.20;;;;;;;18.30;45.89;102750.47;5128107;27;20027;-81
2023/05/29 09:53:53;;;;;;;0.50;0.50;;;;;;;18.30;45.85;102752.28;5108570;28;20024;-80
2023/05/29 09:56:22;;;;;;;0.10;0.10;;;;;;;18.39;46.21;102755.66;5111278;28;20031;-80
2023/05/29 09:58:51;;;;;;;0.10;0.10;;;;;;;18.50;45.49;102749.13;5112206;28;20490;-80
2023/05/29 10:01:17;;;;;;;0.10;0.10;;;;;;;18.55;46.75;102739.16;5100745;28;20062;-80
2023/05/29 10:03:43;;;;;;;0.50;0.50;;;;;;;18.75;46.06;102742.28;5103647;28;20541;-78
2023/05/29 10:06:15;;;;;;;0.20;0.20;;;;;;;18.88;45.71;102733.94;5106409;28;20024;-79
2023/05/29 10:08:49;;;;;;;0.10;0.10;;;;;;;18.96;45.81;102745.38;5100123;28;20492;-79
2023/05/29 10:11:21;;;;;;;0.10;0.10;;;;;;;18.97;43.47;102743.59;5097837;28;20053;-80
2023/05/29 10:13:49;;;;;;;;;;;;;;;19.11;43.88;102740.53;5101806;28;20035;-79
2023/05/29 10:16:20;;;;;;;0.10;0.10;;;;;;;18.96;43.65;102745.38;5102513;28;19911;-81
2023/05/29 10:18:55;;;;;;;0.10;0.10;;;;;;;18.96;44.59;102739.13;5103562;28;20031;-81
2023/05/29 10:21:22;;;;;;;0.10;0.10;;;;;;;18.98;44.87;102738.16;5102480;28;20024;-80
2023/05/29 10:23:50;;;;;;;0.10;0.10;;;;;;;18.98;44.55;102743.53;5101706;28;20399;-80
2023/05/29 10:26:22;;;;;;;0.10;0.10;;;;;;;19.10;44.64;102720.84;5103632;28;20032;-81
2023/05/29 10:29:20;;;;;;;0.10;0.10;;;;;;;19.19;44.26;102736.75;5102371;28;20360;-81
2023/05/29 10:40:12;;;;;;;0.30;0.30;;;;;;;19.22;44.60;102727.72;5117391;27;20406;-80
2023/05/29 10:50:46;;;;;;;0.10;0.10;;;;;;;19.50;44.01;102722.47;5112831;27;20055;-80
2023/05/29 10:53:18;;;;;;;0.50;0.50;;;;;;;19.52;44.01;102722.44;5113874;28;20036;-81
2023/05/29 10:55:45;;;;;;;5.68;0.85;;;;;;;19.59;44.50;102728.50;5113542;28;20074;-77
2023/05/29 10:58:18;;;;;;;2.53;0.40;;;;;;;19.63;43.93;102704.19;5110874;28;20025;-79
2023/05/29 11:00:46;;;;;;;0.10;0.10;;;;;;;19.72;43.88;102720.03;5113417;28;20024;-78
2023/05/29 11:03:21;;;;;;;0.10;0.10;;;;;;;19.68;42.76;102728.25;5112894;28;20023;-78
2023/05/29 11:06:17;;;;;;;0.20;0.20;;;;;;;19.77;42.66;102727.97;5103082;28;20023;-80
2023/05/29 11:08:47;;;;;;;0.10;0.10;;;;;;;19.75;43.14;102724.47;5113505;28;20278;-79
2023/05/29 11:11:15;;;;;;;0.00;0.00;;;;;;;19.76;42.83;102719.97;5120429;28;20095;-78
2023/05/29 11:13:51;;;;;;;0.10;0.10;;;;;;;19.75;43.18;102721.78;5131366;28;20015;-79
2023/05/29 11:16:37;;;;;;;0.00;0.00;;;;;;;19.87;42.89;102724.13;5120866;28;20019;-81
2023/05/29 11:19:10;;;;;;;0.10;0.10;;;;;;;19.84;42.78;102717.97;5118183;28;20523;-82
2023/05/29 11:22:15;;;;;;;0.52;0.52;;;;;;;19.89;43.00;102716.03;5118244;28;20031;-80
2023/05/29 11:24:42;;;;;;;0.10;0.10;;;;;;;19.85;42.62;102720.63;5117228;28;20038;-78
2023/05/29 11:27:10;;;;;;;0.10;0.10;;;;;;;19.92;42.75;102718.63;5113989;28;20024;-81
2023/05/29 11:29:36;;;;;;;0.10;0.10;;;;;;;19.99;43.20;102722.91;5116349;28;20031;-79
2023/05/29 11:32:04;;;;;;;0.47;0.47;;;;;;;20.01;42.25;102726.44;5116491;28;20031;-81
2023/05/29 11:34:32;;;;;;;0.10;0.10;;;;;;;20.10;42.36;102724.38;5115455;28;20020;-81
2023/05/29 11:36:59;;;;;;;0.77;0.73;;;;;;;20.16;42.46;102722.41;5110103;28;20027;-79
2023/05/29 11:39:26;;;;;;;0.35;0.35;;;;;;;20.25;42.62;102726.63;5114145;28;20032;-79
2023/05/29 11:41:54;;;;;;;0.00;0.00;;;;;;;20.33;42.49;102721.84;5107807;28;20024;-82
2023/05/29 11:44:20;;;;;;;0.10;0.10;;;;;;;20.50;42.42;102717.78;5097112;28;20028;-80
2023/05/29 11:46:46;;;;;;;1.45;1.25;;;;;;;20.65;41.85;102722.66;5096679;28;20561;-78
2023/05/29 11:49:12;;;;;;;0.70;0.68;;;;;;;20.73;41.59;102721.56;5095823;28;20024;-79
2023/05/29 11:51:43;;;;;;;0.65;0.65;;;;;;;20.85;42.25;102724.72;5095423;28;20032;-79
2023/05/29 11:54:11;;;;;;;2.90;0.55;;;;;;;20.96;41.70;102721.66;5097550;28;20422;-80
2023/05/29 11:56:40;;;;;;;0.10;0.10;;;;;;;21.03;41.49;102721.44;5096307;28;20028;-80